createdAt,value
2018-08-18T00:02:22.895Z,61.82
2018-08-18T00:04:54.402Z,61.51
2018-08-18T00:07:26.708Z,62.09
2018-08-18T00:09:57.830Z,62.97
2018-08-18T00:12:29.893Z,62.70
2018-08-18T00:15:01.643Z,62.19
2018-08-18T00:20:17.001Z,63.04
2018-08-18T00:22:49.340Z,62.67
2018-08-18T00:25:19.943Z,62.91
2018-08-18T00:27:50.908Z,63.17
2018-08-18T00:30:24.969Z,63.31
2018-08-18T00:35:50.030Z,65.61
2018-08-18T00:38:19.085Z,65.72
2018-08-18T00:40:47.912Z,65.81
2018-08-18T00:43:17.180Z,64.71
2018-08-18T00:45:45.984Z,64.43
2018-08-18T00:48:15.205Z,64.72
2018-08-18T00:50:44.951Z,64.85
2018-08-18T00:53:15.242Z,65.95
2018-08-18T00:55:44.281Z,65.25
2018-08-18T00:58:18.397Z,65.13
2018-08-18T01:00:51.861Z,64.30
2018-08-18T01:03:20.709Z,63.54
2018-08-18T01:05:49.641Z,64.60
2018-08-18T01:08:18.544Z,64.85
2018-08-18T01:10:47.640Z,64.23
2018-08-18T01:13:16.796Z,64.25
2018-08-18T01:15:45.961Z,63.62
2018-08-18T01:18:14.897Z,63.73
2018-08-18T01:20:43.905Z,63.57
2018-08-18T01:23:13.521Z,63.32
2018-08-18T01:25:42.962Z,64.35
2018-08-18T01:28:12.813Z,64.36
2018-08-18T01:30:42.757Z,63.90
2018-08-18T01:33:15.862Z,63.69
2018-08-18T01:35:45.321Z,63.66
2018-08-18T01:38:20.220Z,63.09
2018-08-18T01:40:54.872Z,63.14
2018-08-18T01:43:25.947Z,64.71
2018-08-18T01:45:56.585Z,64.02
2018-08-18T01:48:27.455Z,63.54
2018-08-18T01:51:09.026Z,64.13
2018-08-18T01:53:39.848Z,64.74
2018-08-18T01:56:11.337Z,65.28
2018-08-18T01:58:43.686Z,65.16
2018-08-18T02:01:17.389Z,63.81
2018-08-18T02:03:47.495Z,64.10
2018-08-18T02:06:19.045Z,64.77
2018-08-18T02:08:59.526Z,65.34
2018-08-18T02:11:30.972Z,64.37
2018-08-18T02:14:03.422Z,63.97
2018-08-18T02:16:35.831Z,65.16
2018-08-18T02:19:06.972Z,64.34
2018-08-18T02:21:38.626Z,63.91
2018-08-18T02:24:10.850Z,64.13
2018-08-18T02:26:42.403Z,64.87
2018-08-18T02:29:13.290Z,65.50
2018-08-18T02:31:44.011Z,65.12
2018-08-18T02:34:14.649Z,64.33
2018-08-18T02:36:49.985Z,64.41
2018-08-18T02:39:22.383Z,64.71
2018-08-18T02:42:05.968Z,64.23
2018-08-18T02:44:36.613Z,65.56
2018-08-18T02:47:07.562Z,66.03
2018-08-18T02:49:42.987Z,66.22
2018-08-18T02:52:24.886Z,66.18
2018-08-18T02:55:01.078Z,66.25
2018-08-18T02:57:34.283Z,65.18
2018-08-18T03:00:07.934Z,67.24
2018-08-18T03:02:39.687Z,66.07
2018-08-18T03:05:12.440Z,65.22
2018-08-18T03:07:48.802Z,64.96
2018-08-18T03:10:27.702Z,65.98
2018-08-18T03:13:02.471Z,66.88
2018-08-18T03:16:11.745Z,66.36
2018-08-18T03:18:49.144Z,65.99
2018-08-18T03:21:18.361Z,67.21
2018-08-18T03:23:58.654Z,67.21
2018-08-18T03:26:35.945Z,66.91
2018-08-18T03:29:05.397Z,67.02
2018-08-18T03:31:34.260Z,68.13
2018-08-18T03:34:03.682Z,68.26
2018-08-18T03:36:35.748Z,68.18
2018-08-18T03:39:08.082Z,68.43
2018-08-18T03:41:37.225Z,66.87
2018-08-18T03:44:06.113Z,66.64
2018-08-18T03:46:35.125Z,66.74
2018-08-18T03:49:03.972Z,67.52
2018-08-18T03:51:39.057Z,66.88
2018-08-18T03:54:14.977Z,66.89
2018-08-18T03:56:44.194Z,67.10
2018-08-18T03:59:13.028Z,67.26
2018-08-18T04:01:53.372Z,67.84
2018-08-18T04:04:23.982Z,67.58
2018-08-18T04:06:54.255Z,66.53
2018-08-18T04:09:24.491Z,66.57
2018-08-18T04:11:53.920Z,66.48
2018-08-18T04:14:43.634Z,67.29
2018-08-18T04:17:24.434Z,66.44
2018-08-18T04:19:53.409Z,65.68
2018-08-18T04:22:23.200Z,66.11
2018-08-18T04:24:52.285Z,65.93
2018-08-18T04:27:41.758Z,65.98
2018-08-18T04:30:25.272Z,66.26
2018-08-18T04:32:56.309Z,65.49
2018-08-18T04:35:26.514Z,64.58
2018-08-18T04:37:56.257Z,63.43
2018-08-18T04:40:25.667Z,63.72
2018-08-18T04:43:00.142Z,63.49
2018-08-18T04:45:29.140Z,64.40
2018-08-18T04:47:58.217Z,64.89
2018-08-18T04:50:27.067Z,64.47
2018-08-18T04:52:56.035Z,65.38
2018-08-18T04:55:25.901Z,64.23
2018-08-18T04:57:54.931Z,64.86
2018-08-18T05:00:25.411Z,64.67
2018-08-18T05:02:58.358Z,62.73
2018-08-18T05:05:29.370Z,62.81
2018-08-18T05:08:00.185Z,62.80
2018-08-18T05:10:29.253Z,62.42
2018-08-18T05:12:58.180Z,61.74
2018-08-18T05:15:27.173Z,60.78
2018-08-18T05:17:56.135Z,60.19
2018-08-18T05:20:26.296Z,59.73
2018-08-18T05:22:57.050Z,59.54
2018-08-18T05:25:31.080Z,58.80
2018-08-18T05:28:01.109Z,59.27
2018-08-18T05:30:29.952Z,59.27
2018-08-18T05:32:58.796Z,58.16
2018-08-18T05:35:34.258Z,57.57
2018-08-18T05:38:03.223Z,57.67
2018-08-18T05:40:33.252Z,57.81
2018-08-18T05:43:02.770Z,58.35
2018-08-18T05:45:33.732Z,57.25
2018-08-18T05:48:02.756Z,57.27
2018-08-18T05:50:31.892Z,56.69
2018-08-18T05:53:23.176Z,54.27
2018-08-18T05:55:52.227Z,54.73
2018-08-18T05:58:21.187Z,54.49
2018-08-18T06:03:27.274Z,53.78
2018-08-18T06:05:57.900Z,54.04
2018-08-18T06:08:27.314Z,51.44
2018-08-18T06:10:56.197Z,52.43
2018-08-18T06:13:25.037Z,51.87
2018-08-18T06:16:08.341Z,51.70
2018-08-18T06:18:38.637Z,51.58
2018-08-18T06:21:08.006Z,50.29
2018-08-18T06:23:37.931Z,51.16
2018-08-18T06:26:07.454Z,50.08
2018-08-18T06:28:36.380Z,51.21
2018-08-18T06:31:05.317Z,50.69
2018-08-18T06:33:34.250Z,50.53
2018-08-18T06:38:37.870Z,49.59
2018-08-18T06:41:07.263Z,49.68
2018-08-18T06:43:36.161Z,49.47
2018-08-18T06:46:05.120Z,47.44
2018-08-18T06:48:36.579Z,49.56
2018-08-18T06:51:05.510Z,49.52
2018-08-18T06:53:40.220Z,49.03
2018-08-18T06:56:09.393Z,48.55
2018-08-18T06:58:38.429Z,48.23
2018-08-18T07:01:07.869Z,49.51
2018-08-18T07:03:40.651Z,49.26
2018-08-18T07:06:11.929Z,48.19
2018-08-18T07:08:46.120Z,48.67
2018-08-18T07:11:15.081Z,46.54
2018-08-18T07:13:44.559Z,47.04
2018-08-18T07:16:13.523Z,47.61
2018-08-18T07:18:42.476Z,46.30
2018-08-18T07:21:11.936Z,47.25
2018-08-18T07:23:40.879Z,47.03
2018-08-18T07:26:10.025Z,47.69
2018-08-18T07:28:39.131Z,46.17
2018-08-18T07:31:08.020Z,47.71
2018-08-18T07:33:36.815Z,46.22
2018-08-18T07:36:05.626Z,45.58
2018-08-18T07:38:34.538Z,45.38
2018-08-18T07:41:03.498Z,44.85
2018-08-18T07:43:33.748Z,45.46
2018-08-18T07:46:04.163Z,46.48
2018-08-18T07:48:32.911Z,45.34
2018-08-18T07:51:01.987Z,45.48
2018-08-18T07:53:30.884Z,45.29
2018-08-18T07:55:59.755Z,45.23
2018-08-18T07:58:28.835Z,45.36
2018-08-18T08:01:02.234Z,44.56
2018-08-18T08:03:31.385Z,44.08
2018-08-18T08:06:00.361Z,44.38
2018-08-18T08:08:34.671Z,43.82
2018-08-18T08:11:08.968Z,44.69
2018-08-18T08:13:37.796Z,43.51
2018-08-18T08:16:06.657Z,43.68
2018-08-18T08:18:35.490Z,43.83
2018-08-18T08:21:04.436Z,43.21
2018-08-18T08:23:33.274Z,43.13
2018-08-18T08:26:02.122Z,42.64
2018-08-18T08:28:31.005Z,42.98
2018-08-18T08:31:00.066Z,43.69
2018-08-18T08:33:38.296Z,43.64
2018-08-18T08:36:10.101Z,41.69
2018-08-18T08:38:51.196Z,42.01
2018-08-18T08:41:23.065Z,42.64
2018-08-18T08:43:53.134Z,41.50
2018-08-18T08:46:23.081Z,39.84
2018-08-18T08:48:55.969Z,39.90
2018-08-18T08:51:25.744Z,39.52
2018-08-18T08:53:57.284Z,39.34
2018-08-18T08:56:35.112Z,39.47
2018-08-18T08:59:04.400Z,39.49
2018-08-18T09:01:33.358Z,38.91
2018-08-18T09:04:02.515Z,39.49
2018-08-18T09:06:31.736Z,38.22
2018-08-18T09:09:00.932Z,39.18
2018-08-18T09:11:30.282Z,38.05
2018-08-18T09:14:07.673Z,37.67
2018-08-18T09:16:37.272Z,37.53
2018-08-18T09:19:07.007Z,38.73
2018-08-18T09:21:44.093Z,39.81
2018-08-18T09:24:12.981Z,38.69
2018-08-18T09:26:48.485Z,38.38
2018-08-18T09:29:17.363Z,36.91
2018-08-18T09:31:46.669Z,37.83
2018-08-18T09:34:15.608Z,37.79
2018-08-18T09:36:45.465Z,37.33
2018-08-18T09:39:20.064Z,36.17
2018-08-18T09:41:49.226Z,36.05
2018-08-18T09:44:23.525Z,35.40
2018-08-18T09:46:52.604Z,38.69
2018-08-18T09:49:21.701Z,37.23
2018-08-18T09:51:50.831Z,38.10
2018-08-18T09:54:20.057Z,37.66
2018-08-18T09:56:49.104Z,38.02
2018-08-18T09:59:18.293Z,34.69
2018-08-18T10:01:47.902Z,35.10
2018-08-18T10:04:23.407Z,34.38
2018-08-18T10:06:53.038Z,33.99
2018-08-18T10:09:22.671Z,34.21
2018-08-18T10:11:51.704Z,35.54
2018-08-18T10:14:20.690Z,35.01
2018-08-18T10:16:49.796Z,36.99
2018-08-18T10:19:18.968Z,35.80
2018-08-18T10:21:48.018Z,36.84
2018-08-18T10:24:17.279Z,37.89
2018-08-18T10:26:53.004Z,36.23
2018-08-18T10:29:22.489Z,33.36
2018-08-18T10:31:52.490Z,33.68
2018-08-18T10:34:22.666Z,32.91
2018-08-18T10:36:55.226Z,31.74
2018-08-18T10:39:24.501Z,32.49
2018-08-18T10:42:03.795Z,34.05
2018-08-18T10:44:32.951Z,32.89
2018-08-18T10:47:15.946Z,33.27
2018-08-18T10:49:55.981Z,32.48
2018-08-18T10:52:37.966Z,35.59
2018-08-18T10:55:09.440Z,33.37
2018-08-18T10:57:50.519Z,32.90
2018-08-18T11:00:20.825Z,33.14
2018-08-18T11:02:50.986Z,34.85
2018-08-18T11:05:20.671Z,32.88
2018-08-18T11:07:56.018Z,33.87
2018-08-18T11:10:26.966Z,33.28
2018-08-18T11:12:56.940Z,33.46
2018-08-18T11:15:26.943Z,32.27
2018-08-18T11:17:57.968Z,30.90
2018-08-18T11:20:28.551Z,31.09
2018-08-18T11:23:05.095Z,31.74
2018-08-18T11:25:40.053Z,33.07
2018-08-18T11:28:09.956Z,30.76
2018-08-18T11:30:39.130Z,32.67
2018-08-18T11:33:08.108Z,30.23
2018-08-18T11:35:38.567Z,29.44
2018-08-18T11:38:12.438Z,32.25
2018-08-18T11:40:41.641Z,32.92
2018-08-18T11:43:12.736Z,34.27
2018-08-18T11:45:42.495Z,31.98
2018-08-18T11:48:14.374Z,31.15
2018-08-18T11:50:43.802Z,31.62
2018-08-18T11:53:12.976Z,32.34
2018-08-18T11:55:42.353Z,32.85
2018-08-18T11:58:12.858Z,32.25
2018-08-18T12:00:47.392Z,30.84
2018-08-18T12:03:17.998Z,30.38
2018-08-18T12:05:50.353Z,30.97
2018-08-18T12:08:20.608Z,29.85
2018-08-18T12:10:51.093Z,32.83
2018-08-18T12:13:27.163Z,30.27
2018-08-18T12:16:03.000Z,30.55
2018-08-18T12:18:32.875Z,31.54
2018-08-18T12:23:40.526Z,29.21
2018-08-18T12:26:12.222Z,29.71
2018-08-18T12:28:44.195Z,30.77
2018-08-18T12:31:15.946Z,29.82
2018-08-18T12:33:45.419Z,31.29
2018-08-18T12:36:14.812Z,28.96
2018-08-18T12:38:49.823Z,29.38
2018-08-18T12:41:18.943Z,30.12
2018-08-18T12:43:50.189Z,29.22
2018-08-18T12:46:21.596Z,31.48
2018-08-18T12:48:52.957Z,30.62
2018-08-18T12:51:22.411Z,28.45
2018-08-18T12:53:54.862Z,28.84
2018-08-18T12:56:26.809Z,29.76
2018-08-18T12:58:56.181Z,29.12
2018-08-18T13:01:39.769Z,29.43
2018-08-18T13:04:12.166Z,30.72
2018-08-18T13:06:43.938Z,30.61
2018-08-18T13:09:14.935Z,32.00
2018-08-18T13:11:45.351Z,31.50
2018-08-18T13:14:18.997Z,30.24
2018-08-18T13:16:48.138Z,30.04
2018-08-18T13:19:19.583Z,31.82
2018-08-18T13:21:48.772Z,30.94
2018-08-18T13:24:18.867Z,30.93
2018-08-18T13:26:48.104Z,30.98
2018-08-18T13:29:17.487Z,30.90
2018-08-18T13:31:46.792Z,29.92
2018-08-18T13:34:17.091Z,31.96
2018-08-18T13:36:47.156Z,32.93
2018-08-18T13:39:19.737Z,31.85
2018-08-18T13:41:50.774Z,33.63
2018-08-18T13:44:26.684Z,33.09
2018-08-18T13:46:56.237Z,33.07
2018-08-18T13:49:26.412Z,34.33
2018-08-18T13:51:55.350Z,32.73
2018-08-18T13:54:24.892Z,34.33
2018-08-18T13:56:54.159Z,30.74
2018-08-18T13:59:39.025Z,32.30
2018-08-18T14:02:08.315Z,32.57
2018-08-18T14:04:40.385Z,33.33
2018-08-18T14:07:09.849Z,31.54
2018-08-18T14:09:40.765Z,30.61
2018-08-18T14:12:17.349Z,31.71
2018-08-18T14:14:47.038Z,30.08
2018-08-18T14:17:18.344Z,29.59
2018-08-18T14:19:47.552Z,31.43
2018-08-18T14:22:18.985Z,29.92
2018-08-18T14:24:47.851Z,29.43
2018-08-18T14:27:20.326Z,33.45
2018-08-18T14:29:49.163Z,30.27
2018-08-18T14:32:23.272Z,31.01
2018-08-18T14:34:56.700Z,28.89
2018-08-18T14:37:25.523Z,30.94
2018-08-18T14:39:54.581Z,28.75
2018-08-18T14:42:23.823Z,29.99
2018-08-18T14:44:55.813Z,30.02
2018-08-18T14:47:25.288Z,29.44
2018-08-18T14:50:09.629Z,29.15
2018-08-18T14:52:38.753Z,30.61
2018-08-18T14:55:07.635Z,28.81
2018-08-18T14:57:37.784Z,29.74
2018-08-18T15:00:07.129Z,30.99
2018-08-18T15:02:36.182Z,30.33
2018-08-18T15:05:05.156Z,29.42
2018-08-18T15:07:38.838Z,30.51
2018-08-18T15:10:07.649Z,30.78
2018-08-18T15:12:36.648Z,31.09
2018-08-18T15:15:05.685Z,29.66
2018-08-18T15:17:34.656Z,31.30
2018-08-18T15:20:03.726Z,29.07
2018-08-18T15:22:34.655Z,29.63
2018-08-18T15:25:03.525Z,30.98
2018-08-18T15:27:32.670Z,30.46
2018-08-18T15:30:05.627Z,31.32
2018-08-18T15:32:34.708Z,30.74
2018-08-18T15:35:03.676Z,33.17
2018-08-18T15:37:32.549Z,33.46
2018-08-18T15:40:01.458Z,31.60
2018-08-18T15:42:30.340Z,32.42
2018-08-18T15:45:04.411Z,32.22
2018-08-18T15:47:33.222Z,32.95
2018-08-18T15:50:02.197Z,32.54
2018-08-18T15:52:33.142Z,30.75
2018-08-18T15:55:03.756Z,32.93
2018-08-18T15:57:33.128Z,31.53
2018-08-18T16:00:02.227Z,32.37
2018-08-18T16:02:31.047Z,31.30
2018-08-18T16:04:59.934Z,32.70
2018-08-18T16:07:29.129Z,30.68
2018-08-18T16:09:57.910Z,31.17
2018-08-18T16:12:26.792Z,30.74
2018-08-18T16:14:55.657Z,30.77
2018-08-18T16:17:24.913Z,31.17
2018-08-18T16:19:53.795Z,30.99
2018-08-18T16:22:22.666Z,30.06
2018-08-18T16:24:51.544Z,31.54
2018-08-18T16:27:20.332Z,30.96
2018-08-18T16:29:49.772Z,29.81
2018-08-18T16:32:22.925Z,29.29
2018-08-18T16:35:13.312Z,31.12
2018-08-18T16:37:45.667Z,32.88
2018-08-18T16:40:14.843Z,34.80
2018-08-18T16:42:43.692Z,35.43
2018-08-18T16:45:13.506Z,36.02
2018-08-18T16:47:51.552Z,36.61
2018-08-18T16:50:20.716Z,36.86
2018-08-18T16:52:49.594Z,37.63
2018-08-18T16:55:18.420Z,37.40
2018-08-18T16:57:47.251Z,36.58
2018-08-18T17:00:16.084Z,36.46
2018-08-18T17:02:44.896Z,37.21
2018-08-18T17:05:13.846Z,37.39
2018-08-18T17:07:43.966Z,37.39
2018-08-18T17:10:13.502Z,38.03
2018-08-18T17:12:42.399Z,38.04
2018-08-18T17:15:11.208Z,38.85
2018-08-18T17:17:40.008Z,39.28
2018-08-18T17:20:09.689Z,41.02
2018-08-18T17:22:38.564Z,41.06
2018-08-18T17:25:08.868Z,42.02
2018-08-18T17:27:40.912Z,42.69
2018-08-18T17:30:09.726Z,41.76
2018-08-18T17:32:38.505Z,41.73
2018-08-18T17:35:07.432Z,42.33
2018-08-18T17:37:36.239Z,42.64
2018-08-18T17:40:05.567Z,41.85
2018-08-18T17:42:34.449Z,42.61
2018-08-18T17:45:03.208Z,42.10
2018-08-18T17:47:33.711Z,43.78
2018-08-18T17:50:02.731Z,43.35
2018-08-18T17:52:31.941Z,44.32
2018-08-18T17:55:15.981Z,44.15
2018-08-18T17:57:45.599Z,44.64
2018-08-18T18:00:22.575Z,45.10
2018-08-18T18:02:56.466Z,43.33
2018-08-18T18:05:27.873Z,43.95
2018-08-18T18:07:59.037Z,43.75
2018-08-18T18:10:29.914Z,44.18
2018-08-18T18:12:58.951Z,43.48
2018-08-18T18:15:38.044Z,44.04
2018-08-18T18:18:11.509Z,43.29
2018-08-18T18:20:40.424Z,44.32
2018-08-18T18:23:12.098Z,43.74
2018-08-18T18:25:40.981Z,44.97
2018-08-18T18:28:09.848Z,44.67
2018-08-18T18:30:39.381Z,45.06
2018-08-18T18:33:09.150Z,45.93
2018-08-18T18:35:37.995Z,46.44
2018-08-18T18:38:07.077Z,47.47
2018-08-18T18:40:39.262Z,47.17
2018-08-18T18:43:08.355Z,47.43
2018-08-18T18:45:37.271Z,47.64
2018-08-18T18:48:07.373Z,48.08
2018-08-18T18:50:37.096Z,48.78
2018-08-18T18:53:05.936Z,48.60
2018-08-18T18:55:41.210Z,49.00
2018-08-18T18:58:12.354Z,48.77
2018-08-18T19:00:45.500Z,49.84
2018-08-18T19:03:14.501Z,50.02
2018-08-18T19:05:47.536Z,49.52
2018-08-18T19:08:18.020Z,49.99
2018-08-18T19:10:47.160Z,49.74
2018-08-18T19:13:16.730Z,50.78
2018-08-18T19:15:46.623Z,52.12
2018-08-18T19:18:15.741Z,51.64
2018-08-18T19:20:44.605Z,50.63
2018-08-18T19:23:15.287Z,50.20
2018-08-18T19:25:45.441Z,50.42
2018-08-18T19:28:23.431Z,51.25
2018-08-18T19:30:52.376Z,51.79
2018-08-18T19:33:21.697Z,51.15
2018-08-18T19:35:52.970Z,52.00
2018-08-18T19:38:22.972Z,51.46
2018-08-18T19:40:54.238Z,51.82
2018-08-18T19:43:25.096Z,51.17
2018-08-18T19:45:54.569Z,52.54
2018-08-18T19:48:24.586Z,52.53
2018-08-18T19:53:33.949Z,52.62
2018-08-18T19:56:03.227Z,52.03
2018-08-18T19:58:32.341Z,52.80
2018-08-18T20:03:35.835Z,52.46
2018-08-18T20:06:15.903Z,53.01
2018-08-18T20:08:44.723Z,53.78
2018-08-18T20:11:13.597Z,54.45
2018-08-18T20:13:42.459Z,54.08
2018-08-18T20:16:11.309Z,54.47
2018-08-18T20:18:40.224Z,54.81
2018-08-18T20:21:09.006Z,54.86
2018-08-18T20:23:37.858Z,54.97
2018-08-18T20:26:06.758Z,55.83
2018-08-18T20:28:35.604Z,56.17
2018-08-18T20:31:04.494Z,55.68
2018-08-18T20:33:33.321Z,56.32
2018-08-18T20:36:02.521Z,55.24
2018-08-18T20:38:36.644Z,56.33
2018-08-18T20:41:05.464Z,55.49
2018-08-18T20:43:34.280Z,55.14
2018-08-18T20:46:03.173Z,55.33
2018-08-18T20:48:32.062Z,56.38
2018-08-18T20:51:01.383Z,56.70
2018-08-18T20:53:30.159Z,56.85
2018-08-18T20:56:01.623Z,56.09
2018-08-18T20:58:32.108Z,56.58
2018-08-18T21:01:01.496Z,57.76
2018-08-18T21:03:44.475Z,57.54
2018-08-18T21:06:15.116Z,57.62
2018-08-18T21:08:44.034Z,58.11
2018-08-18T21:11:12.880Z,58.18
2018-08-18T21:13:41.665Z,58.72
2018-08-18T21:16:10.613Z,58.43
2018-08-18T21:18:39.479Z,58.59
2018-08-18T21:21:26.003Z,58.78
2018-08-18T21:23:55.084Z,58.45
2018-08-18T21:26:24.026Z,58.56
2018-08-18T21:28:55.010Z,58.81
2018-08-18T21:31:29.088Z,59.55
2018-08-18T21:33:59.530Z,59.34
2018-08-18T21:36:28.614Z,60.40
2018-08-18T21:39:00.261Z,60.27
2018-08-18T21:41:30.265Z,58.97
2018-08-18T21:43:59.220Z,59.38
2018-08-18T21:46:28.081Z,59.69
2018-08-18T21:48:56.912Z,60.67
2018-08-18T21:51:27.014Z,60.49
2018-08-18T21:53:55.873Z,60.51
2018-08-18T21:56:24.797Z,60.52
2018-08-18T21:58:53.604Z,59.82
2018-08-18T22:01:23.964Z,59.45
2018-08-18T22:03:55.517Z,59.76
2018-08-18T22:06:24.534Z,59.27
2018-08-18T22:09:03.268Z,59.48
2018-08-18T22:11:32.189Z,60.38
2018-08-18T22:14:01.015Z,60.81
2018-08-18T22:16:29.853Z,60.67
2018-08-18T22:19:02.984Z,60.33
2018-08-18T22:21:32.463Z,60.82
2018-08-18T22:24:02.679Z,60.62
2018-08-18T22:26:31.512Z,61.13
2018-08-18T22:29:02.301Z,62.35
2018-08-18T22:31:35.190Z,61.17
2018-08-18T22:34:05.173Z,61.68
2018-08-18T22:36:35.212Z,61.07
2018-08-18T22:39:06.232Z,61.21
2018-08-18T22:41:35.039Z,61.26
2018-08-18T22:44:03.939Z,61.54
2018-08-18T22:46:39.108Z,60.98
2018-08-18T22:49:08.035Z,61.48
2018-08-18T22:51:36.875Z,60.31
2018-08-18T22:54:05.666Z,61.03
2018-08-18T22:56:35.695Z,60.12
2018-08-18T22:59:06.622Z,60.76
2018-08-18T23:01:36.993Z,60.31
2018-08-18T23:04:18.923Z,60.04
2018-08-18T23:06:49.667Z,60.10
2018-08-18T23:09:19.084Z,61.34
2018-08-18T23:11:48.167Z,60.90
2018-08-18T23:14:17.355Z,60.86
2018-08-18T23:16:46.512Z,60.75
2018-08-18T23:19:15.685Z,60.43
2018-08-18T23:24:28.496Z,61.32
2018-08-18T23:26:58.064Z,61.65
2018-08-18T23:29:27.573Z,61.02
2018-08-18T23:31:57.064Z,60.92
2018-08-18T23:34:26.260Z,61.14
2018-08-18T23:36:56.113Z,60.54
2018-08-18T23:39:25.234Z,60.38
2018-08-18T23:42:26.167Z,59.76
2018-08-18T23:44:55.751Z,59.49
2018-08-18T23:47:25.202Z,59.73
2018-08-18T23:49:54.274Z,59.83
2018-08-18T23:52:23.661Z,60.46
2018-08-18T23:54:53.044Z,60.09
2018-08-18T23:57:22.256Z,60.11
2018-08-18T23:59:51.662Z,61.31
